createdAt,value
2018-07-17T00:00:48.817Z,15.00
2018-07-17T00:03:17.235Z,15.10
2018-07-17T00:05:45.677Z,14.90
2018-07-17T00:08:14.086Z,15.00
2018-07-17T00:10:42.510Z,14.90
2018-07-17T00:13:10.967Z,14.80
2018-07-17T00:15:39.365Z,14.70
2018-07-17T00:18:07.844Z,14.70
2018-07-17T00:20:36.278Z,14.60
2018-07-17T00:23:04.740Z,14.60
2018-07-17T00:25:33.177Z,14.50
2018-07-17T00:28:01.593Z,14.50
2018-07-17T00:32:58.387Z,14.50
2018-07-17T00:35:26.818Z,14.40
2018-07-17T00:37:55.251Z,14.40
2018-07-17T00:40:23.835Z,14.50
2018-07-17T00:42:52.318Z,14.50
2018-07-17T00:45:20.750Z,14.50
2018-07-17T00:47:49.164Z,14.50
2018-07-17T00:50:17.594Z,14.40
2018-07-17T00:52:45.994Z,14.30
2018-07-17T00:55:14.465Z,14.30
2018-07-17T01:00:11.181Z,14.20
2018-07-17T01:02:44.864Z,14.10
2018-07-17T01:05:18.479Z,14.00
2018-07-17T01:07:52.161Z,13.90
2018-07-17T01:10:26.100Z,14.00
2018-07-17T01:12:53.801Z,14.00
2018-07-17T01:17:56.886Z,13.90
2018-07-17T01:20:25.464Z,13.90
2018-07-17T01:22:54.079Z,13.90
2018-07-17T01:25:22.681Z,13.90
2018-07-17T01:27:51.132Z,13.70
2018-07-17T01:30:19.558Z,13.70
2018-07-17T01:32:48.000Z,13.60
2018-07-17T01:35:16.434Z,13.50
2018-07-17T01:37:44.904Z,13.60
2018-07-17T01:40:13.349Z,13.50
2018-07-17T01:42:41.773Z,13.40
2018-07-17T01:45:10.213Z,13.40
2018-07-17T01:47:38.667Z,13.40
2018-07-17T01:50:07.142Z,13.50
2018-07-17T01:52:35.600Z,13.50
2018-07-17T01:55:04.081Z,13.50
2018-07-17T01:57:32.569Z,13.50
2018-07-17T02:00:00.991Z,13.40
2018-07-17T02:02:29.418Z,13.30
2018-07-17T02:04:57.874Z,13.20
2018-07-17T02:07:26.322Z,13.20
2018-07-17T02:09:54.754Z,13.20
2018-07-17T02:12:23.228Z,13.10
2018-07-17T02:14:51.682Z,13.10
2018-07-17T02:17:20.133Z,13.10
2018-07-17T02:19:48.568Z,13.00
2018-07-17T02:22:17.019Z,13.00
2018-07-17T02:24:45.446Z,13.10
2018-07-17T02:27:13.917Z,13.10
2018-07-17T02:29:42.394Z,13.00
2018-07-17T02:32:10.878Z,12.90
2018-07-17T02:34:39.323Z,12.80
2018-07-17T02:37:07.813Z,12.80
2018-07-17T02:39:36.270Z,12.70
2018-07-17T02:42:04.763Z,12.70
2018-07-17T02:44:33.217Z,12.60
2018-07-17T02:47:01.694Z,12.70
2018-07-17T02:49:30.172Z,12.70
2018-07-17T02:51:58.642Z,12.70
2018-07-17T02:54:27.082Z,12.80
2018-07-17T02:56:55.578Z,12.80
2018-07-17T02:59:24.178Z,12.80
2018-07-17T03:01:52.642Z,12.70
2018-07-17T03:04:21.115Z,12.70
2018-07-17T03:06:49.671Z,12.70
2018-07-17T03:09:18.155Z,12.60
2018-07-17T03:11:46.605Z,12.50
2018-07-17T03:14:15.051Z,12.60
2018-07-17T03:16:43.521Z,12.70
2018-07-17T03:19:11.987Z,12.60
2018-07-17T03:21:40.430Z,12.50
2018-07-17T03:24:08.942Z,12.40
2018-07-17T03:26:37.381Z,12.40
2018-07-17T03:29:06.001Z,12.30
2018-07-17T03:31:34.505Z,12.40
2018-07-17T03:34:03.022Z,12.30
2018-07-17T03:36:31.770Z,12.30
2018-07-17T03:39:00.289Z,12.30
2018-07-17T03:41:28.757Z,12.30
2018-07-17T03:43:57.199Z,12.30
2018-07-17T03:46:25.650Z,12.50
2018-07-17T03:48:54.071Z,12.60
2018-07-17T03:51:22.525Z,12.50
2018-07-17T03:53:50.973Z,12.30
2018-07-17T03:56:19.802Z,12.30
2018-07-17T03:58:48.381Z,12.30
2018-07-17T04:01:18.886Z,12.40
2018-07-17T04:03:47.350Z,12.50
2018-07-17T04:06:15.787Z,12.60
2018-07-17T04:08:44.237Z,12.60
2018-07-17T04:11:12.675Z,12.80
2018-07-17T04:13:41.211Z,12.80
2018-07-17T04:16:09.629Z,12.60
2018-07-17T04:18:39.575Z,12.70
2018-07-17T04:21:08.028Z,12.70
2018-07-17T04:23:36.460Z,12.70
2018-07-17T04:26:04.946Z,12.80
2018-07-17T04:28:33.379Z,13.00
2018-07-17T04:31:01.806Z,13.00
2018-07-17T04:33:30.226Z,13.00
2018-07-17T04:35:58.686Z,13.10
2018-07-17T04:38:27.215Z,13.10
2018-07-17T04:40:55.587Z,13.20
2018-07-17T04:43:24.040Z,13.30
2018-07-17T04:45:52.475Z,13.30
2018-07-17T04:48:20.908Z,13.50
2018-07-17T04:50:49.369Z,13.50
2018-07-17T04:53:17.814Z,13.70
2018-07-17T04:55:46.253Z,13.90
2018-07-17T04:58:14.698Z,14.00
2018-07-17T05:00:43.148Z,13.90
2018-07-17T05:03:11.587Z,14.10
2018-07-17T05:05:40.050Z,14.30
2018-07-17T05:08:08.513Z,14.50
2018-07-17T05:10:36.999Z,14.80
2018-07-17T05:13:05.574Z,15.60
2018-07-17T05:15:34.008Z,16.20
2018-07-17T05:18:02.454Z,16.90
2018-07-17T05:20:30.894Z,17.80
2018-07-17T05:22:59.333Z,18.30
2018-07-17T05:25:27.776Z,19.00
2018-07-17T05:27:56.278Z,20.10
2018-07-17T05:30:24.718Z,20.30
2018-07-17T05:32:53.163Z,20.70
2018-07-17T05:35:21.624Z,20.80
2018-07-17T05:37:50.038Z,21.00
2018-07-17T05:40:18.513Z,21.00
2018-07-17T05:42:46.947Z,21.20
2018-07-17T05:45:15.393Z,21.40
2018-07-17T05:47:43.818Z,21.30
2018-07-17T05:50:13.022Z,20.50
2018-07-17T05:52:41.523Z,20.10
2018-07-17T05:55:09.990Z,20.20
2018-07-17T05:57:38.469Z,20.80
2018-07-17T06:00:07.953Z,21.40
2018-07-17T06:02:36.409Z,22.20
2018-07-17T06:05:05.047Z,22.80
2018-07-17T06:07:33.466Z,23.10
2018-07-17T06:10:01.954Z,23.60
2018-07-17T06:12:30.402Z,22.00
2018-07-17T06:14:58.855Z,20.70
2018-07-17T06:17:27.282Z,21.20
2018-07-17T06:19:55.723Z,22.10
2018-07-17T06:22:24.167Z,21.70
2018-07-17T06:24:52.580Z,21.30
2018-07-17T06:27:21.008Z,21.30
2018-07-17T06:29:49.434Z,22.50
2018-07-17T06:32:17.854Z,22.40
2018-07-17T06:34:46.270Z,22.40
2018-07-17T06:37:14.694Z,21.80
2018-07-17T06:39:43.108Z,21.50
2018-07-17T06:42:11.703Z,21.80
2018-07-17T06:47:08.269Z,22.70
2018-07-17T06:49:36.717Z,22.40
2018-07-17T06:52:05.215Z,22.30
2018-07-17T06:54:33.641Z,22.10
2018-07-17T06:57:02.094Z,21.80
2018-07-17T06:59:30.630Z,21.90
2018-07-17T07:01:59.136Z,21.70
2018-07-17T07:04:27.572Z,21.70
2018-07-17T07:06:56.035Z,21.70
2018-07-17T07:09:24.478Z,22.00
2018-07-17T07:11:52.985Z,22.10
2018-07-17T07:14:21.536Z,23.00
2018-07-17T07:16:50.067Z,25.20
2018-07-17T07:19:18.605Z,25.20
2018-07-17T07:24:15.183Z,25.70
2018-07-17T07:26:43.634Z,26.30
2018-07-17T07:29:12.057Z,26.70
2018-07-17T07:31:40.511Z,26.30
2018-07-17T07:34:08.941Z,26.00
2018-07-17T07:36:37.398Z,26.00
2018-07-17T07:39:07.992Z,27.00
2018-07-17T07:41:36.442Z,28.00
2018-07-17T07:44:05.106Z,28.90
2018-07-17T07:46:33.553Z,29.00
2018-07-17T07:49:01.979Z,28.70
2018-07-17T07:51:30.890Z,28.70
2018-07-17T07:53:59.462Z,28.80
2018-07-17T07:56:27.990Z,29.70
2018-07-17T07:58:56.418Z,29.80
2018-07-17T08:01:24.853Z,30.60
2018-07-17T08:03:53.384Z,31.00
2018-07-17T08:06:21.803Z,31.40
2018-07-17T08:08:50.245Z,32.50
2018-07-17T08:11:18.842Z,33.00
2018-07-17T08:13:47.316Z,33.10
2018-07-17T08:16:15.868Z,31.60
2018-07-17T08:18:44.328Z,31.20
2018-07-17T08:21:13.286Z,30.90
2018-07-17T08:23:41.824Z,31.60
2018-07-17T08:26:11.908Z,31.30
2018-07-17T08:28:40.417Z,31.60
2018-07-17T08:31:08.906Z,31.40
2018-07-17T08:33:37.373Z,31.90
2018-07-17T08:36:05.971Z,31.60
2018-07-17T08:38:34.484Z,32.40
2018-07-17T08:41:02.929Z,32.20
2018-07-17T08:43:31.594Z,33.10
2018-07-17T08:45:59.817Z,33.30
2018-07-17T08:48:28.253Z,32.80
2018-07-17T08:50:56.745Z,32.60
2018-07-17T08:53:25.197Z,33.20
2018-07-17T08:55:53.809Z,33.20
2018-07-17T08:58:22.248Z,31.70
2018-07-17T09:00:50.730Z,31.60
2018-07-17T09:03:19.163Z,31.80
2018-07-17T09:05:47.671Z,32.40
2018-07-17T09:08:16.131Z,32.10
2018-07-17T09:13:13.352Z,32.50
2018-07-17T09:15:41.876Z,33.00
2018-07-17T09:18:10.366Z,33.20
2018-07-17T09:20:38.810Z,33.70
2018-07-17T09:23:07.254Z,33.50
2018-07-17T09:25:35.731Z,33.70
2018-07-17T09:28:04.249Z,32.50
2018-07-17T09:30:37.903Z,32.80
2018-07-17T09:33:06.358Z,33.50
2018-07-17T09:35:34.805Z,33.20
2018-07-17T09:38:03.253Z,34.40
2018-07-17T09:40:31.835Z,33.90
2018-07-17T09:43:00.365Z,33.80
2018-07-17T09:45:28.798Z,33.60
2018-07-17T09:47:57.391Z,33.10
2018-07-17T09:50:25.827Z,33.00
2018-07-17T09:52:54.258Z,33.20
2018-07-17T09:55:23.640Z,32.70
2018-07-17T10:00:25.617Z,33.50
2018-07-17T10:02:54.084Z,33.60
2018-07-17T10:05:22.576Z,33.00
2018-07-17T10:07:51.034Z,33.40
2018-07-17T10:10:19.537Z,33.20
2018-07-17T10:12:48.011Z,32.90
2018-07-17T10:15:16.522Z,32.70
2018-07-17T10:17:44.983Z,33.10
2018-07-17T10:20:13.531Z,33.00
2018-07-17T10:22:41.981Z,33.60
2018-07-17T10:25:10.571Z,33.90
2018-07-17T10:27:39.744Z,33.50
2018-07-17T10:30:09.085Z,33.80
2018-07-17T10:32:37.842Z,34.00
2018-07-17T10:35:06.422Z,33.70
2018-07-17T10:37:34.874Z,34.00
2018-07-17T10:40:03.381Z,33.60
2018-07-17T10:42:31.854Z,33.70
2018-07-17T10:45:00.327Z,33.30
2018-07-17T10:47:28.820Z,33.40
2018-07-17T10:49:57.289Z,33.60
2018-07-17T10:52:25.751Z,34.00
2018-07-17T10:54:54.211Z,34.40
2018-07-17T10:57:22.714Z,34.50
2018-07-17T10:59:51.177Z,35.10
2018-07-17T11:02:19.654Z,33.70
2018-07-17T11:04:48.121Z,33.60
2018-07-17T11:07:16.569Z,34.30
2018-07-17T11:09:45.079Z,34.90
2018-07-17T11:12:13.610Z,34.60
2018-07-17T11:14:42.385Z,34.70
2018-07-17T11:17:10.910Z,35.50
2018-07-17T11:19:39.458Z,35.30
2018-07-17T11:22:08.008Z,35.00
2018-07-17T11:24:36.457Z,34.80
2018-07-17T11:27:06.036Z,35.00
2018-07-17T11:29:34.465Z,33.60
2018-07-17T11:32:02.959Z,32.30
2018-07-17T11:34:31.317Z,32.20
2018-07-17T11:37:01.406Z,32.90
2018-07-17T11:39:30.711Z,33.50
2018-07-17T11:41:59.518Z,33.50
2018-07-17T11:44:28.496Z,34.50
2018-07-17T11:46:57.581Z,33.80
2018-07-17T11:49:26.005Z,32.70
2018-07-17T11:51:54.441Z,32.50
2018-07-17T11:54:22.882Z,32.00
2018-07-17T11:56:51.441Z,31.50
2018-07-17T11:59:20.133Z,31.00
2018-07-17T12:01:48.683Z,31.10
2018-07-17T12:04:17.247Z,31.10
2018-07-17T12:06:45.678Z,31.60
2018-07-17T12:09:14.143Z,32.70
2018-07-17T12:11:43.269Z,33.70
2018-07-17T12:14:11.713Z,34.30
2018-07-17T12:16:40.211Z,34.60
2018-07-17T12:19:08.647Z,34.30
2018-07-17T12:21:37.066Z,33.50
2018-07-17T12:24:05.559Z,32.90
2018-07-17T12:26:34.014Z,32.60
2018-07-17T12:29:02.539Z,32.40
2018-07-17T12:31:31.080Z,32.10
2018-07-17T12:33:59.760Z,31.50
2018-07-17T12:36:28.210Z,32.00
2018-07-17T12:38:56.927Z,33.00
2018-07-17T12:41:25.444Z,32.70
2018-07-17T12:43:53.913Z,33.20
2018-07-17T12:46:22.413Z,33.50
2018-07-17T12:48:50.894Z,32.20
2018-07-17T12:51:19.396Z,32.20
2018-07-17T12:53:47.914Z,32.00
2018-07-17T12:56:16.417Z,31.40
2018-07-17T12:58:44.944Z,31.10
2018-07-17T13:01:13.358Z,30.60
2018-07-17T13:03:43.117Z,30.10
2018-07-17T13:06:11.628Z,29.70
2018-07-17T13:08:40.139Z,29.60
2018-07-17T13:11:08.843Z,29.30
2018-07-17T13:13:37.470Z,29.10
2018-07-17T13:16:05.971Z,28.80
2018-07-17T13:18:34.707Z,28.60
2018-07-17T13:21:03.233Z,28.10
2018-07-17T13:23:31.902Z,27.60
2018-07-17T13:26:00.836Z,27.00
2018-07-17T13:28:29.572Z,26.60
2018-07-17T13:30:58.108Z,26.30
2018-07-17T13:33:26.602Z,26.20
2018-07-17T13:35:55.099Z,26.20
2018-07-17T13:38:23.598Z,26.20
2018-07-17T13:40:52.146Z,26.20
2018-07-17T13:43:20.601Z,25.40
2018-07-17T13:45:49.060Z,25.20
2018-07-17T13:48:17.510Z,25.00
2018-07-17T13:50:45.929Z,24.80
2018-07-17T13:53:14.379Z,24.80
2018-07-17T13:55:42.850Z,24.50
2018-07-17T13:58:11.362Z,24.50
2018-07-17T14:03:08.086Z,23.90
2018-07-17T14:05:36.534Z,24.10
2018-07-17T14:08:05.230Z,24.00
2018-07-17T14:10:33.771Z,23.70
2018-07-17T14:15:30.481Z,22.50
2018-07-17T14:17:58.938Z,22.20
2018-07-17T14:20:27.401Z,21.60
2018-07-17T14:22:55.867Z,21.30
2018-07-17T14:25:24.317Z,20.90
2018-07-17T14:30:20.929Z,20.30
2018-07-17T14:32:49.308Z,20.30
2018-07-17T14:35:17.768Z,20.20
2018-07-17T14:37:46.229Z,20.00
2018-07-17T14:42:42.810Z,20.00
2018-07-17T14:45:11.243Z,19.70
2018-07-17T14:47:39.676Z,19.40
2018-07-17T14:50:08.649Z,19.30
2018-07-17T14:52:37.186Z,19.50
2018-07-17T14:55:06.939Z,19.60
2018-07-17T14:57:35.429Z,20.00
2018-07-17T15:00:04.792Z,20.20
2018-07-17T15:02:33.290Z,20.40
2018-07-17T15:05:01.795Z,20.60
2018-07-17T15:07:30.234Z,20.90
2018-07-17T15:09:58.770Z,21.40
2018-07-17T15:12:29.169Z,22.00
2018-07-17T15:14:58.019Z,22.30
2018-07-17T15:17:27.401Z,22.80
2018-07-17T15:19:58.067Z,22.90
2018-07-17T15:22:28.737Z,22.90
2018-07-17T15:24:57.875Z,23.20
2018-07-17T15:27:26.425Z,23.10
2018-07-17T15:29:57.294Z,23.20
2018-07-17T15:32:27.436Z,23.60
2018-07-17T15:34:58.179Z,23.60
2018-07-17T15:37:26.693Z,23.80
2018-07-17T15:39:56.639Z,24.10
2018-07-17T15:42:25.258Z,24.60
2018-07-17T15:44:54.794Z,24.50
2018-07-17T15:47:24.297Z,24.70
2018-07-17T15:49:55.191Z,24.70
2018-07-17T15:52:23.760Z,25.00
2018-07-17T15:54:56.567Z,25.10
2018-07-17T15:57:25.057Z,25.00
2018-07-17T15:59:53.545Z,24.60
2018-07-17T16:02:21.966Z,24.20
2018-07-17T16:04:50.765Z,23.90
2018-07-17T16:07:20.119Z,24.00
2018-07-17T16:09:48.933Z,24.00
2018-07-17T16:12:18.277Z,24.00
2018-07-17T16:14:46.723Z,24.20
2018-07-17T16:17:15.202Z,24.20
2018-07-17T16:19:43.637Z,24.10
2018-07-17T16:22:12.094Z,24.10
2018-07-17T16:24:40.526Z,24.20
2018-07-17T16:27:09.017Z,24.20
2018-07-17T16:29:37.452Z,24.20
2018-07-17T16:32:06.185Z,24.20
2018-07-17T16:34:34.659Z,24.20
2018-07-17T16:37:03.278Z,24.20
2018-07-17T16:41:59.837Z,24.20
2018-07-17T16:44:28.349Z,24.20
2018-07-17T16:46:56.809Z,24.20
2018-07-17T16:49:25.240Z,24.20
2018-07-17T16:51:53.687Z,24.30
2018-07-17T16:54:22.518Z,24.30
2018-07-17T16:56:51.030Z,24.30
2018-07-17T16:59:19.470Z,24.20
2018-07-17T17:01:47.912Z,23.90
2018-07-17T17:04:16.385Z,23.70
2018-07-17T17:06:44.858Z,23.30
2018-07-17T17:09:13.294Z,23.10
2018-07-17T17:11:43.285Z,22.90
2018-07-17T17:14:11.724Z,22.80
2018-07-17T17:16:40.907Z,22.50
2018-07-17T17:19:09.364Z,22.40
2018-07-17T17:21:38.066Z,22.30
2018-07-17T17:24:06.666Z,22.10
2018-07-17T17:26:35.098Z,21.80
2018-07-17T17:29:03.549Z,21.50
2018-07-17T17:31:32.205Z,21.40
2018-07-17T17:34:00.822Z,21.20
2018-07-17T17:36:29.468Z,21.00
2018-07-17T17:41:26.071Z,20.70
2018-07-17T17:43:55.117Z,20.60
2018-07-17T17:46:23.599Z,20.40
2018-07-17T17:48:52.087Z,20.30
2018-07-17T17:51:20.578Z,20.20
2018-07-17T17:54:06.577Z,19.90
2018-07-17T17:56:35.045Z,19.70
2018-07-17T17:59:03.657Z,19.50
2018-07-17T18:01:32.118Z,19.30
2018-07-17T18:04:00.971Z,19.20
2018-07-17T18:06:32.366Z,19.10
2018-07-17T18:09:04.803Z,19.00
2018-07-17T18:11:34.056Z,19.00
2018-07-17T18:14:02.521Z,18.90
2018-07-17T18:16:30.938Z,18.60
2018-07-17T18:18:59.398Z,18.50
2018-07-17T18:21:27.832Z,18.50
2018-07-17T18:23:56.289Z,18.60
2018-07-17T18:26:24.705Z,18.60
2018-07-17T18:28:53.165Z,18.70
2018-07-17T18:31:21.605Z,18.60
2018-07-17T18:33:50.042Z,18.70
2018-07-17T18:36:18.461Z,18.80
2018-07-17T18:38:47.909Z,18.70
2018-07-17T18:41:16.325Z,18.60
2018-07-17T18:43:45.100Z,18.60
2018-07-17T18:46:13.993Z,18.60
2018-07-17T18:48:48.208Z,18.70
2018-07-17T18:51:17.436Z,18.80
2018-07-17T18:53:46.644Z,18.80
2018-07-17T18:56:15.380Z,18.70
2018-07-17T18:58:44.857Z,18.70
2018-07-17T19:01:13.985Z,18.80
2018-07-17T19:03:42.525Z,18.70
2018-07-17T19:06:11.322Z,18.80
2018-07-17T19:08:39.948Z,18.60
2018-07-17T19:11:08.778Z,18.50
2018-07-17T19:13:37.444Z,18.50
2018-07-17T19:18:34.475Z,18.60
2018-07-17T19:21:03.662Z,18.40
2018-07-17T19:23:35.001Z,18.40
2018-07-17T19:26:03.797Z,18.40
2018-07-17T19:28:32.386Z,18.40
2018-07-17T19:31:00.997Z,18.30
2018-07-17T19:33:29.737Z,18.30
2018-07-17T19:35:58.363Z,18.20
2018-07-17T19:38:27.147Z,18.10
2018-07-17T19:40:55.716Z,18.00
2018-07-17T19:43:24.633Z,17.90
2018-07-17T19:45:53.177Z,17.80
2018-07-17T19:48:21.778Z,17.70
2018-07-17T19:50:50.259Z,17.70
2018-07-17T19:53:23.962Z,17.60
2018-07-17T19:55:52.445Z,17.50
2018-07-17T19:58:21.185Z,17.50
2018-07-17T20:00:50.644Z,17.40
2018-07-17T20:03:19.370Z,17.40
2018-07-17T20:05:48.229Z,17.20
2018-07-17T20:08:18.080Z,17.20
2018-07-17T20:10:46.845Z,17.20
2018-07-17T20:13:15.535Z,17.10
2018-07-17T20:15:44.436Z,17.00
2018-07-17T20:18:13.162Z,17.00
2018-07-17T20:20:42.575Z,16.90
2018-07-17T20:23:11.679Z,16.80
2018-07-17T20:25:40.354Z,16.80
2018-07-17T20:28:09.140Z,16.80
2018-07-17T20:30:37.753Z,16.80
2018-07-17T20:33:06.727Z,16.70
2018-07-17T20:35:35.429Z,16.60
2018-07-17T20:38:04.200Z,16.50
2018-07-17T20:40:33.016Z,16.40
2018-07-17T20:43:01.798Z,16.40
2018-07-17T20:45:30.977Z,16.40
2018-07-17T20:47:59.733Z,16.40
2018-07-17T20:50:28.966Z,16.30
2018-07-17T20:52:57.711Z,16.20
2018-07-17T20:55:26.260Z,16.20
2018-07-17T20:57:54.717Z,16.20
2018-07-17T21:00:23.154Z,16.10
2018-07-17T21:02:51.619Z,16.10
2018-07-17T21:05:20.065Z,16.10
2018-07-17T21:07:49.578Z,16.10
2018-07-17T21:10:18.010Z,16.00
2018-07-17T21:12:46.493Z,16.00
2018-07-17T21:15:14.939Z,16.00
2018-07-17T21:17:43.389Z,16.00
2018-07-17T21:20:12.098Z,15.90
2018-07-17T21:22:40.557Z,15.90
2018-07-17T21:25:09.009Z,15.80
2018-07-17T21:27:37.462Z,15.80
2018-07-17T21:30:05.930Z,15.80
2018-07-17T21:32:34.995Z,15.70
2018-07-17T21:35:03.466Z,15.70
2018-07-17T21:37:31.904Z,15.60
2018-07-17T21:40:00.323Z,15.60
2018-07-17T21:42:28.754Z,15.60
2018-07-17T21:44:57.197Z,15.50
2018-07-17T21:47:25.618Z,15.50
2018-07-17T21:49:54.062Z,15.40
2018-07-17T21:52:22.497Z,15.40
2018-07-17T21:54:50.955Z,15.40
2018-07-17T21:57:19.389Z,15.40
2018-07-17T21:59:47.862Z,15.30
2018-07-17T22:02:16.299Z,15.30
2018-07-17T22:04:44.718Z,15.20
2018-07-17T22:07:13.149Z,15.10
2018-07-17T22:09:41.587Z,15.10
2018-07-17T22:12:09.986Z,15.10
2018-07-17T22:14:38.422Z,15.10
2018-07-17T22:17:06.845Z,15.10
2018-07-17T22:19:35.265Z,15.10
2018-07-17T22:22:03.709Z,15.10
2018-07-17T22:24:32.237Z,15.00
2018-07-17T22:27:00.682Z,15.00
2018-07-17T22:29:29.102Z,14.90
2018-07-17T22:31:59.520Z,14.80
2018-07-17T22:34:27.946Z,14.80
2018-07-17T22:36:56.388Z,14.80
2018-07-17T22:39:24.817Z,14.90
2018-07-17T22:41:53.286Z,14.90
2018-07-17T22:44:21.713Z,14.80
2018-07-17T22:46:50.156Z,14.90
2018-07-17T22:49:23.186Z,14.80
2018-07-17T22:51:53.485Z,14.80
2018-07-17T22:54:21.970Z,14.70
2018-07-17T22:59:19.346Z,14.80
2018-07-17T23:01:48.244Z,14.80
2018-07-17T23:04:17.156Z,14.80
2018-07-17T23:06:45.944Z,14.80
2018-07-17T23:09:14.397Z,14.90
2018-07-17T23:11:42.849Z,15.00
2018-07-17T23:14:11.612Z,15.10
2018-07-17T23:16:40.218Z,15.00
2018-07-17T23:19:08.827Z,15.00
2018-07-17T23:21:37.393Z,15.00
2018-07-17T23:24:05.905Z,15.00
2018-07-17T23:26:34.457Z,14.90
2018-07-17T23:29:03.621Z,15.00
2018-07-17T23:31:32.203Z,15.00
2018-07-17T23:34:01.356Z,15.00
2018-07-17T23:36:30.165Z,15.00
2018-07-17T23:38:58.787Z,15.00
2018-07-17T23:41:27.623Z,15.00
2018-07-17T23:43:56.829Z,15.00
2018-07-17T23:46:25.935Z,15.00
2018-07-17T23:48:54.401Z,15.00
2018-07-17T23:51:22.952Z,15.00
2018-07-17T23:53:51.510Z,14.80
2018-07-17T23:56:20.159Z,14.70
2018-07-17T23:58:48.717Z,14.80
